createdAt,value
2024-03-06T00:00:50.882Z,9.60
2024-03-06T00:03:39.169Z,8.90
2024-03-06T00:06:07.779Z,8.20
2024-03-06T00:08:36.181Z,9.90
2024-03-06T00:11:04.675Z,8.10
2024-03-06T00:13:33.099Z,8.80
2024-03-06T00:16:01.402Z,8.20
2024-03-06T00:18:29.802Z,9.10
2024-03-06T00:20:58.137Z,8.40
2024-03-06T00:23:27.348Z,8.80
2024-03-06T00:25:55.849Z,7.80
2024-03-06T00:28:24.251Z,8.00
2024-03-06T00:30:52.589Z,7.80
2024-03-06T00:33:20.990Z,8.30
2024-03-06T00:35:49.418Z,9.30
2024-03-06T00:38:17.798Z,7.40
2024-03-06T00:40:46.259Z,7.80
2024-03-06T00:43:14.799Z,9.80
2024-03-06T00:45:43.844Z,10.00
2024-03-06T00:48:12.256Z,10.30
2024-03-06T00:50:40.975Z,8.40
2024-03-06T00:53:09.429Z,9.20
2024-03-06T00:55:38.217Z,7.90
2024-03-06T00:58:07.963Z,8.40
2024-03-06T01:00:36.508Z,9.20
2024-03-06T01:03:04.964Z,8.20
2024-03-06T01:05:33.750Z,7.50
2024-03-06T01:08:02.208Z,7.70
2024-03-06T01:10:30.649Z,8.00
2024-03-06T01:12:59.093Z,9.10
2024-03-06T01:15:27.455Z,10.90
2024-03-06T01:17:55.848Z,8.60
2024-03-06T01:20:24.331Z,7.50
2024-03-06T01:22:52.755Z,9.10
2024-03-06T01:25:21.924Z,7.90
2024-03-06T01:27:50.483Z,8.30
2024-03-06T01:30:18.887Z,7.50
2024-03-06T01:32:47.587Z,8.30
2024-03-06T01:35:16.244Z,7.50
2024-03-06T01:37:44.623Z,7.90
2024-03-06T01:40:13.664Z,7.90
2024-03-06T01:42:42.066Z,8.40
2024-03-06T01:45:10.901Z,10.00
2024-03-06T01:47:39.292Z,9.10
2024-03-06T01:50:10.599Z,7.50
2024-03-06T01:52:41.289Z,9.20
2024-03-06T01:55:11.574Z,9.10
2024-03-06T01:57:41.599Z,10.20
2024-03-06T02:00:14.989Z,10.30
2024-03-06T02:02:44.805Z,8.60
2024-03-06T02:05:14.083Z,8.80
2024-03-06T02:07:46.052Z,10.30
2024-03-06T02:10:14.782Z,8.90
2024-03-06T02:12:43.971Z,9.50
2024-03-06T02:15:13.896Z,8.10
2024-03-06T02:17:43.446Z,7.30
2024-03-06T02:20:13.986Z,8.50
2024-03-06T02:22:42.626Z,8.60
2024-03-06T02:25:12.288Z,12.60
2024-03-06T02:27:40.767Z,9.60
2024-03-06T02:30:09.482Z,9.50
2024-03-06T02:32:38.026Z,10.10
2024-03-06T02:35:10.104Z,10.60
2024-03-06T02:37:39.874Z,11.00
2024-03-06T02:40:11.199Z,10.80
2024-03-06T02:42:40.311Z,12.30
2024-03-06T02:45:10.056Z,11.90
2024-03-06T02:47:38.519Z,11.00
2024-03-06T02:50:08.883Z,10.60
2024-03-06T02:52:37.714Z,9.70
2024-03-06T02:55:06.794Z,12.30
2024-03-06T02:57:35.172Z,12.40
2024-03-06T03:00:05.893Z,10.50
2024-03-06T03:05:02.951Z,10.60
2024-03-06T03:07:31.430Z,9.30
2024-03-06T03:09:59.769Z,10.60
2024-03-06T03:12:28.127Z,8.70
2024-03-06T03:14:56.529Z,6.90
2024-03-06T03:17:24.939Z,9.20
2024-03-06T03:19:53.913Z,7.90
2024-03-06T03:22:22.336Z,11.40
2024-03-06T03:24:50.709Z,10.40
2024-03-06T03:27:19.348Z,12.00
2024-03-06T03:29:47.722Z,12.60
2024-03-06T03:32:17.912Z,9.90
2024-03-06T03:34:46.445Z,11.40
2024-03-06T03:37:14.814Z,9.90
2024-03-06T03:39:45.335Z,8.60
2024-03-06T03:42:13.671Z,10.10
2024-03-06T03:44:41.993Z,8.80
2024-03-06T03:47:10.375Z,10.20
2024-03-06T03:49:38.716Z,11.70
2024-03-06T03:52:07.908Z,12.30
2024-03-06T03:54:36.548Z,9.80
2024-03-06T03:57:05.121Z,9.80
2024-03-06T03:59:33.444Z,8.80
2024-03-06T04:02:01.903Z,10.00
2024-03-06T04:04:30.546Z,12.00
2024-03-06T04:07:00.855Z,11.80
2024-03-06T04:09:29.533Z,12.10
2024-03-06T04:11:57.981Z,12.20
2024-03-06T04:14:27.930Z,10.60
2024-03-06T04:16:56.357Z,13.70
2024-03-06T04:19:24.786Z,10.10
2024-03-06T04:21:53.173Z,14.00
2024-03-06T04:24:21.603Z,12.50
2024-03-06T04:26:49.965Z,14.20
2024-03-06T04:29:18.926Z,9.60
2024-03-06T04:31:47.329Z,10.70
2024-03-06T04:34:15.938Z,10.60
2024-03-06T04:36:44.239Z,11.50
2024-03-06T04:39:13.338Z,11.50
2024-03-06T04:41:41.726Z,13.80
2024-03-06T04:44:10.059Z,10.80
2024-03-06T04:46:38.464Z,11.40
2024-03-06T04:49:06.717Z,10.70
2024-03-06T04:51:35.111Z,9.10
2024-03-06T04:54:04.623Z,10.60
2024-03-06T04:56:32.942Z,13.30
2024-03-06T04:59:04.452Z,13.20
2024-03-06T05:01:33.116Z,11.20
2024-03-06T05:59:17.719Z,12.50
2024-03-06T06:01:46.771Z,13.30
2024-03-06T06:04:15.679Z,13.60
2024-03-06T06:06:44.127Z,12.70
2024-03-06T06:09:17.362Z,14.80
2024-03-06T06:11:46.408Z,18.50
2024-03-06T06:14:15.060Z,13.70
2024-03-06T06:16:44.085Z,14.90
2024-03-06T06:19:12.600Z,12.70
2024-03-06T06:21:42.477Z,14.40
2024-03-06T06:24:10.938Z,14.30
2024-03-06T06:26:39.356Z,12.90
2024-03-06T06:29:07.799Z,10.60
2024-03-06T06:31:36.264Z,17.10
2024-03-06T06:34:04.650Z,11.60
2024-03-06T06:36:33.033Z,13.30
2024-03-06T06:39:03.961Z,17.60
2024-03-06T06:41:34.487Z,14.80
2024-03-06T06:44:04.106Z,15.80
2024-03-06T06:46:32.856Z,15.20
2024-03-06T06:49:01.320Z,13.70
2024-03-06T06:51:29.712Z,15.20
2024-03-06T06:54:00.616Z,18.10
2024-03-06T06:56:30.171Z,18.30
2024-03-06T06:58:58.673Z,17.30
2024-03-06T07:01:27.133Z,18.90
2024-03-06T07:03:55.560Z,15.80
2024-03-06T07:06:24.017Z,15.60
2024-03-06T07:08:52.438Z,13.20
2024-03-06T07:11:21.724Z,13.20
2024-03-06T07:13:52.825Z,15.50
2024-03-06T07:16:28.249Z,16.40
2024-03-06T07:18:56.599Z,14.90
2024-03-06T07:21:25.416Z,19.80
2024-03-06T07:23:53.765Z,15.00
2024-03-06T07:26:22.628Z,15.10
2024-03-06T07:28:51.049Z,19.10
2024-03-06T07:31:20.122Z,14.80
2024-03-06T07:33:53.714Z,17.30
2024-03-06T07:36:25.383Z,13.70
2024-03-06T07:38:53.797Z,17.70
2024-03-06T07:41:22.240Z,19.70
2024-03-06T07:43:50.591Z,17.90
2024-03-06T07:46:18.953Z,14.00
2024-03-06T07:48:47.462Z,15.10
2024-03-06T07:51:15.821Z,16.60
2024-03-06T07:53:44.245Z,16.80
2024-03-06T07:56:14.933Z,17.60
2024-03-06T07:58:42.241Z,20.00
2024-03-06T08:01:09.630Z,16.50
2024-03-06T08:03:54.893Z,17.20
2024-03-06T08:06:22.358Z,19.00
2024-03-06T08:08:49.927Z,18.10
2024-03-06T08:11:17.596Z,25.40
2024-03-06T08:13:45.232Z,23.40
2024-03-06T08:16:12.625Z,21.80
2024-03-06T08:18:40.022Z,25.10
2024-03-06T08:21:08.180Z,20.50
2024-03-06T08:23:35.574Z,22.00
2024-03-06T08:26:03.151Z,23.10
2024-03-06T08:28:30.470Z,26.10
2024-03-06T08:30:58.391Z,22.80
2024-03-06T08:33:26.443Z,21.90
2024-03-06T08:35:54.224Z,21.40
2024-03-06T08:38:21.727Z,23.90
2024-03-06T08:40:50.087Z,24.40
2024-03-06T08:43:18.090Z,23.30
2024-03-06T08:45:45.441Z,20.10
2024-03-06T08:48:13.072Z,24.20
2024-03-06T08:50:40.935Z,16.50
2024-03-06T08:53:10.694Z,15.60
2024-03-06T08:55:38.413Z,17.20
2024-03-06T08:58:05.853Z,21.20
2024-03-06T09:00:33.440Z,15.20
2024-03-06T09:03:01.516Z,17.20
2024-03-06T09:05:28.971Z,18.50
2024-03-06T09:08:01.333Z,19.30
2024-03-06T09:10:29.999Z,20.00
2024-03-06T09:12:57.407Z,19.30
2024-03-06T09:15:25.661Z,15.70
2024-03-06T09:17:53.319Z,14.60
2024-03-06T09:20:21.497Z,17.80
2024-03-06T09:22:49.318Z,18.00
2024-03-06T09:25:17.012Z,15.50
2024-03-06T09:27:45.070Z,16.20
2024-03-06T09:30:14.859Z,26.40
2024-03-06T09:32:43.386Z,31.10
2024-03-06T09:35:11.301Z,17.10
2024-03-06T09:37:38.665Z,17.50
2024-03-06T09:40:09.046Z,13.80
2024-03-06T09:42:36.465Z,10.70
2024-03-06T09:45:04.066Z,14.90
2024-03-06T09:47:33.981Z,13.60
2024-03-06T09:50:04.484Z,13.40
2024-03-06T09:52:33.975Z,13.20
2024-03-06T10:01:25.975Z,12.80
2024-03-06T10:03:53.656Z,14.10
2024-03-06T10:06:21.851Z,13.80
2024-03-06T10:08:50.655Z,10.50
2024-03-06T10:11:19.522Z,17.20
2024-03-06T10:13:46.913Z,13.30
2024-03-06T10:16:15.643Z,15.50
2024-03-06T10:18:43.413Z,14.10
2024-03-06T10:21:10.894Z,13.00
2024-03-06T10:23:38.795Z,15.30
2024-03-06T10:33:57.187Z,13.70
2024-03-06T10:36:28.829Z,11.10
2024-03-06T10:39:01.216Z,12.70
2024-03-06T10:41:34.216Z,11.70
2024-03-06T10:44:03.248Z,13.90
2024-03-06T10:46:32.673Z,11.70
2024-03-06T10:49:01.598Z,12.20
2024-03-06T10:51:31.224Z,11.40
2024-03-06T10:54:00.156Z,11.90
2024-03-06T10:56:27.635Z,11.70
2024-03-06T10:58:58.263Z,11.70
2024-03-06T11:01:26.150Z,13.00
2024-03-06T11:03:53.780Z,13.90
2024-03-06T11:06:21.156Z,12.10
2024-03-06T11:08:49.843Z,10.40
2024-03-06T11:11:25.239Z,11.70
2024-03-06T11:13:59.802Z,12.00
2024-03-06T11:16:35.268Z,11.50
2024-03-06T11:19:11.247Z,12.50
2024-03-06T11:21:49.110Z,13.60
2024-03-06T11:24:33.572Z,10.50
2024-03-06T11:27:03.041Z,10.60
2024-03-06T11:29:51.236Z,13.00
2024-03-06T11:32:19.438Z,9.40
2024-03-06T11:34:46.913Z,9.10
2024-03-06T11:37:14.741Z,9.90
2024-03-06T11:39:45.430Z,10.70
2024-03-06T11:44:58.784Z,11.90
2024-03-06T11:47:26.442Z,11.50
2024-03-06T11:56:45.528Z,16.20
2024-03-06T11:59:13.089Z,12.10
2024-03-06T12:01:42.145Z,13.30
2024-03-06T12:04:09.651Z,10.00
2024-03-06T12:06:37.149Z,10.90
2024-03-06T12:09:05.105Z,13.60
2024-03-06T12:11:32.808Z,10.10
2024-03-06T12:14:00.526Z,10.60
2024-03-06T12:16:27.855Z,11.40
2024-03-06T12:18:59.225Z,9.30
2024-03-06T12:21:34.069Z,12.10
2024-03-06T12:24:11.179Z,11.30
2024-03-06T12:26:39.035Z,12.00
2024-03-06T12:29:11.257Z,10.30
2024-03-06T12:31:43.564Z,9.60
2024-03-06T12:34:18.648Z,12.40
2024-03-06T12:36:47.227Z,13.10
2024-03-06T12:39:19.518Z,15.20
2024-03-06T12:41:47.021Z,15.50
2024-03-06T12:50:38.733Z,13.70
2024-03-06T12:59:37.491Z,13.60
2024-03-06T13:02:05.389Z,15.00
2024-03-06T13:04:32.907Z,14.80
2024-03-06T13:07:00.365Z,14.20
2024-03-06T13:09:27.736Z,13.20
2024-03-06T13:11:55.842Z,13.10
2024-03-06T13:14:23.647Z,13.40
2024-03-06T13:16:51.113Z,12.60
2024-03-06T13:19:18.501Z,11.90
2024-03-06T13:21:45.821Z,13.90
2024-03-06T13:24:13.192Z,14.50
2024-03-06T13:26:41.679Z,15.20
2024-03-06T13:29:09.282Z,15.70
2024-03-06T13:31:37.452Z,13.70
2024-03-06T13:34:08.934Z,13.90
2024-03-06T13:36:36.353Z,14.40
2024-03-06T13:39:03.796Z,14.90
2024-03-06T13:41:31.213Z,13.30
2024-03-06T13:43:58.736Z,12.50
2024-03-06T13:46:26.125Z,13.80
2024-03-06T13:48:53.513Z,14.60
2024-03-06T13:51:20.964Z,11.90
2024-03-06T13:53:49.267Z,15.70
2024-03-06T13:56:16.944Z,11.60
2024-03-06T13:58:44.490Z,18.70
2024-03-06T14:01:16.776Z,13.10
2024-03-06T14:03:50.670Z,12.70
2024-03-06T14:06:23.410Z,13.30
2024-03-06T14:08:50.917Z,15.70
2024-03-06T14:11:20.175Z,13.40
2024-03-06T14:13:47.777Z,13.00
2024-03-06T14:16:15.188Z,13.70
2024-03-06T14:18:42.751Z,12.00
2024-03-06T14:21:10.565Z,15.50
2024-03-06T14:23:37.948Z,11.40
2024-03-06T14:26:05.546Z,9.90
2024-03-06T14:28:32.960Z,11.40
2024-03-06T14:31:01.392Z,12.20
2024-03-06T14:33:28.754Z,10.50
2024-03-06T14:35:56.684Z,11.00
2024-03-06T14:38:24.235Z,11.90
2024-03-06T14:40:51.678Z,14.20
2024-03-06T14:43:19.032Z,12.60
2024-03-06T14:45:47.136Z,10.60
2024-03-06T14:48:14.568Z,12.20
2024-03-06T14:50:42.157Z,12.10
2024-03-06T14:53:09.656Z,11.10
2024-03-06T14:55:37.148Z,14.50
2024-03-06T14:58:05.747Z,13.40
2024-03-06T15:00:33.222Z,13.30
2024-03-06T15:03:21.517Z,13.40
2024-03-06T15:05:49.262Z,11.80
2024-03-06T15:08:31.552Z,15.40
2024-03-06T15:10:59.119Z,17.20
2024-03-06T15:13:26.749Z,21.40
2024-03-06T15:15:55.007Z,20.90
2024-03-06T15:18:22.710Z,20.00
2024-03-06T15:20:56.516Z,15.10
2024-03-06T15:23:24.057Z,19.40
2024-03-06T15:25:52.034Z,14.40
2024-03-06T15:28:19.371Z,16.40
2024-03-06T15:30:46.829Z,15.30
2024-03-06T15:33:14.372Z,12.90
2024-03-06T15:35:42.023Z,13.40
2024-03-06T15:38:10.260Z,13.30
2024-03-06T15:40:37.665Z,13.50
2024-03-06T15:43:05.093Z,10.60
2024-03-06T15:45:32.741Z,14.50
2024-03-06T15:48:00.181Z,10.80
2024-03-06T15:50:28.061Z,13.20
2024-03-06T15:53:11.127Z,13.60
2024-03-06T15:55:39.176Z,13.40
2024-03-06T15:58:06.801Z,10.20
2024-03-06T16:00:34.288Z,12.30
2024-03-06T16:03:01.791Z,13.20
2024-03-06T16:05:29.587Z,11.50
2024-03-06T16:08:05.445Z,12.40
2024-03-06T16:10:36.037Z,11.00
2024-03-06T16:13:03.646Z,11.10
2024-03-06T16:15:31.624Z,11.10
2024-03-06T16:17:59.214Z,12.40
2024-03-06T16:20:27.160Z,10.90
2024-03-06T16:22:54.567Z,9.90
2024-03-06T16:25:22.383Z,11.00
2024-03-06T16:34:04.654Z,10.00
2024-03-06T16:36:32.145Z,12.20
2024-03-06T16:38:59.578Z,9.10
2024-03-06T16:41:27.438Z,10.00
2024-03-06T16:43:55.001Z,8.70
2024-03-06T16:46:22.368Z,11.80
2024-03-06T16:48:49.919Z,9.40
2024-03-06T16:51:21.316Z,13.40
2024-03-06T16:53:48.848Z,20.00
2024-03-06T16:56:16.429Z,12.10
2024-03-06T16:58:43.785Z,9.60
2024-03-06T17:01:11.621Z,11.90
2024-03-06T17:03:39.098Z,11.60
2024-03-06T17:06:07.846Z,14.70
2024-03-06T17:08:36.906Z,15.90
2024-03-06T17:11:05.604Z,16.10
2024-03-06T17:13:36.534Z,14.10
2024-03-06T17:18:38.572Z,13.20
2024-03-06T17:21:10.098Z,13.40
2024-03-06T17:23:55.399Z,11.70
2024-03-06T17:26:24.084Z,15.30
2024-03-06T17:28:53.026Z,15.70
2024-03-06T17:31:21.518Z,14.90
2024-03-06T17:33:49.960Z,15.20
2024-03-06T17:36:18.746Z,16.50
2024-03-06T17:38:48.334Z,17.20
2024-03-06T17:41:18.843Z,15.20
2024-03-06T17:43:47.487Z,16.70
2024-03-06T17:46:16.066Z,14.90
2024-03-06T17:48:45.133Z,14.10
2024-03-06T17:51:16.209Z,15.10
2024-03-06T17:53:47.356Z,11.40
2024-03-06T17:56:30.449Z,12.00
2024-03-06T17:58:58.953Z,10.50
2024-03-06T18:01:27.520Z,10.90
2024-03-06T18:03:56.124Z,12.30
2024-03-06T18:06:26.046Z,10.30
2024-03-06T18:08:54.704Z,13.90
2024-03-06T18:11:23.332Z,13.90
2024-03-06T18:13:51.881Z,16.00
2024-03-06T18:16:20.237Z,17.00
2024-03-06T18:18:48.685Z,11.70
2024-03-06T18:21:17.164Z,10.00
2024-03-06T18:23:45.641Z,9.80
2024-03-06T18:26:14.161Z,12.10
2024-03-06T18:28:42.701Z,11.30
2024-03-06T18:31:11.084Z,9.50
2024-03-06T18:33:39.686Z,10.10
2024-03-06T18:36:08.658Z,11.90
2024-03-06T18:38:39.083Z,10.40
2024-03-06T18:41:07.687Z,9.20
2024-03-06T18:43:36.280Z,11.70
2024-03-06T18:46:04.743Z,12.30
2024-03-06T18:48:33.184Z,11.20
2024-03-06T18:51:02.048Z,12.50
2024-03-06T18:53:30.637Z,13.90
2024-03-06T18:55:59.216Z,11.90
2024-03-06T18:58:29.089Z,12.10
2024-03-06T19:00:57.642Z,13.00
2024-03-06T19:03:26.091Z,13.10
2024-03-06T19:05:55.261Z,18.40
2024-03-06T19:08:24.210Z,15.10
2024-03-06T19:10:52.746Z,15.70
2024-03-06T19:13:21.245Z,14.90
2024-03-06T19:15:49.714Z,13.10
2024-03-06T19:18:18.248Z,13.30
2024-03-06T19:20:47.008Z,9.30
2024-03-06T19:23:15.823Z,10.20
2024-03-06T19:25:44.250Z,10.40
2024-03-06T19:28:13.296Z,11.20
2024-03-06T19:30:41.658Z,14.50
2024-03-06T19:33:23.865Z,14.80
2024-03-06T19:35:52.563Z,13.00
2024-03-06T19:38:21.052Z,14.80
2024-03-06T19:40:51.693Z,16.60
2024-03-06T19:43:20.103Z,16.20
2024-03-06T19:45:48.543Z,17.80
2024-03-06T19:48:18.544Z,20.80
2024-03-06T19:50:47.714Z,18.80
2024-03-06T19:53:17.011Z,17.10
2024-03-06T19:55:46.233Z,16.90
2024-03-06T19:58:14.963Z,18.90
2024-03-06T20:00:43.476Z,16.60
2024-03-06T20:03:11.871Z,18.70
2024-03-06T20:05:40.727Z,22.10
2024-03-06T20:08:09.230Z,19.70
2024-03-06T20:10:38.205Z,21.70
2024-03-06T20:13:06.934Z,22.20
2024-03-06T20:15:38.743Z,18.40
2024-03-06T20:18:07.545Z,19.20
2024-03-06T20:20:36.190Z,17.00
2024-03-06T20:23:13.758Z,18.10
2024-03-06T20:25:43.947Z,18.80
2024-03-06T20:28:12.332Z,21.50
2024-03-06T20:30:44.155Z,23.80
2024-03-06T20:33:13.369Z,19.10
2024-03-06T20:35:42.045Z,25.50
2024-03-06T20:38:16.650Z,22.80
2024-03-06T20:40:48.261Z,20.90
2024-03-06T20:43:17.686Z,20.60
2024-03-06T20:45:48.992Z,20.30
2024-03-06T20:48:17.519Z,20.70
2024-03-06T20:50:46.109Z,19.00
2024-03-06T20:53:14.649Z,19.90
2024-03-06T20:55:47.191Z,19.90
2024-03-06T20:58:15.701Z,23.30
2024-03-06T21:00:44.872Z,25.10
2024-03-06T21:03:17.421Z,23.30
2024-03-06T21:05:46.260Z,21.20
2024-03-06T21:08:14.864Z,20.50
2024-03-06T21:10:45.836Z,22.00
2024-03-06T21:13:14.688Z,18.60
2024-03-06T21:15:43.207Z,20.50
2024-03-06T21:18:12.952Z,20.10
2024-03-06T21:20:41.659Z,17.00
2024-03-06T21:23:10.166Z,17.40
2024-03-06T21:25:38.709Z,17.20
2024-03-06T21:28:08.578Z,16.50
2024-03-06T21:30:37.001Z,14.80
2024-03-06T21:33:06.953Z,19.20
2024-03-06T21:35:35.563Z,17.10
2024-03-06T21:38:04.653Z,19.70
2024-03-06T21:40:33.054Z,17.60
2024-03-06T21:43:04.978Z,17.80
2024-03-06T21:45:36.644Z,17.80
2024-03-06T21:48:05.748Z,18.60
2024-03-06T21:50:34.701Z,22.00
2024-03-06T21:53:03.450Z,19.00
2024-03-06T21:55:34.295Z,19.50
2024-03-06T22:00:32.797Z,19.50
2024-03-06T22:03:01.561Z,22.10
2024-03-06T22:05:43.756Z,20.10
2024-03-06T22:08:12.275Z,20.00
2024-03-06T22:10:58.391Z,21.90
2024-03-06T22:13:26.821Z,23.80
2024-03-06T22:15:55.234Z,20.50
2024-03-06T22:18:23.615Z,21.40
2024-03-06T22:21:06.928Z,21.80
2024-03-06T22:23:35.946Z,19.60
2024-03-06T22:26:04.764Z,20.80
2024-03-06T22:28:33.140Z,18.70
2024-03-06T22:31:01.907Z,19.90
2024-03-06T22:33:44.697Z,18.90
2024-03-06T22:36:17.524Z,19.00
2024-03-06T22:38:46.694Z,17.30
2024-03-06T22:41:24.079Z,23.90
2024-03-06T22:43:52.577Z,17.20
2024-03-06T22:46:22.960Z,17.80
2024-03-06T22:49:05.210Z,17.70
2024-03-06T22:51:33.530Z,16.20
2024-03-06T22:54:02.295Z,17.10
2024-03-06T22:56:32.898Z,15.80
2024-03-06T22:59:01.953Z,16.90
2024-03-06T23:01:30.370Z,17.80
2024-03-06T23:03:58.704Z,15.20
2024-03-06T23:06:29.323Z,15.50
2024-03-06T23:08:57.835Z,14.50
2024-03-06T23:11:26.365Z,12.30
2024-03-06T23:13:54.881Z,11.50
2024-03-06T23:16:23.281Z,10.80
2024-03-06T23:19:05.505Z,11.10
2024-03-06T23:21:36.707Z,12.10
2024-03-06T23:24:05.323Z,13.50
2024-03-06T23:26:33.843Z,14.50
2024-03-06T23:29:02.464Z,12.80
2024-03-06T23:31:30.968Z,14.70
2024-03-06T23:33:59.387Z,12.70
2024-03-06T23:36:27.753Z,12.40
2024-03-06T23:38:56.155Z,14.80
2024-03-06T23:41:24.688Z,12.20
2024-03-06T23:44:06.956Z,13.80
2024-03-06T23:46:49.366Z,13.10
2024-03-06T23:49:20.615Z,14.50
2024-03-06T23:51:50.308Z,17.90
2024-03-06T23:54:20.665Z,16.60
2024-03-06T23:56:51.227Z,15.20
2024-03-06T23:59:20.415Z,14.20
